TimeEDT,TemperatureF,Dew PointF,Humidity,Sea Level PressureIn,VisibilityMPH,Wind Direction,Wind SpeedMPH,Gust SpeedMPH,PrecipitationIn,Events,Conditions,WindDirDegrees,DateUTC
12:15 AM,48.4,44.6,87,29.75,7.0,West,10.4,20.7,N/A,Rain,Heavy Rain,270,2012-10-26 04:15:00
12:35 AM,46.2,42.4,87,29.75,5.0,West,9.2,19.6,N/A,Rain,Rain,280,2012-10-26 04:35:00
12:54 AM,46.2,42.3,86,29.79,10.0,West,13.8,18.4,N/A,Rain,Rain,280,2012-10-26 04:54:00
1:15 AM,46.2,42.4,87,29.81,10.0,West,4.6,-,N/A,Rain,Light Rain,270,2012-10-26 05:15:00
1:35 AM,46.2,41.9,85,29.82,7.0,West,11.5,23.0,N/A,,Overcast,280,2012-10-26 05:35:00
1:54 AM,45.9,41.9,86,29.84,3.0,West,8.1,-,N/A,Rain,Light Rain,270,2012-10-26 05:54:00
2:15 AM,45.3,41.9,88,29.86,3.0,West,9.2,19.6,N/A,,Drizzle,270,2012-10-26 06:15:00
2:35 AM,44.8,40.6,85,29.88,3.0,West,5.8,16.1,N/A,Rain,Light Rain,270,2012-10-26 06:35:00
2:55 AM,43.2,39.4,86,29.89,2.5,West,16.1,23.0,N/A,Rain,Rain,280,2012-10-26 06:55:00
3:15 AM,42.6,38.3,85,29.91,4.0,West,10.4,16.1,N/A,Rain,Rain,270,2012-10-26 07:15:00
3:34 AM,42.6,37.8,83,29.92,7.0,West,12.7,20.7,N/A,Rain,Light Rain,280,2012-10-26 07:34:00
3:55 AM,42.3,36.7,81,29.93,10.0,West,12.7,17.3,N/A,,Overcast,280,2012-10-26 07:55:00
4:15 AM,42.1,35.6,78,29.94,10.0,West,11.5,17.3,N/A,,Overcast,280,2012-10-26 08:15:00
4:34 AM,41.9,34.7,76,29.94,10.0,West,10.4,-,N/A,,Mostly Cloudy,270,2012-10-26 08:34:00
4:55 AM,42.1,35.1,76,29.96,10.0,West,8.1,-,N/A,,Overcast,270,2012-10-26 08:55:00
5:15 AM,42.1,34.2,74,29.97,10.0,West,13.8,20.7,N/A,,Overcast,280,2012-10-26 09:15:00
5:34 AM,42.1,33.4,71,29.98,10.0,West,11.5,18.4,N/A,,Overcast,280,2012-10-26 09:34:00
5:55 AM,42.1,33.1,70,29.99,10.0,West,11.5,18.4,N/A,,Overcast,280,2012-10-26 09:55:00
6:15 AM,42.1,33.6,72,30.01,10.0,West,10.4,-,N/A,,Overcast,270,2012-10-26 10:15:00
6:35 AM,42.1,32.7,69,30.02,10.0,West,12.7,19.6,N/A,,Overcast,280,2012-10-26 10:35:00
6:55 AM,41.9,32.0,68,30.03,10.0,West,11.5,16.1,N/A,,Overcast,280,2012-10-26 10:55:00
7:14 AM,41.5,31.8,68,30.04,10.0,West,11.5,17.3,N/A,,Overcast,280,2012-10-26 11:14:00
7:35 AM,41.5,31.1,66,30.04,10.0,West,11.5,18.4,N/A,,Overcast,280,2012-10-26 11:35:00
7:55 AM,41.2,30.6,66,30.05,10.0,West,9.2,-,N/A,,Overcast,280,2012-10-26 11:55:00
8:14 AM,41.0,30.4,66,30.07,10.0,West,10.4,17.3,N/A,,Overcast,280,2012-10-26 12:14:00
8:54 AM,41.0,28.2,60,30.09,10.0,West,12.7,18.4,N/A,,Overcast,280,2012-10-26 12:54:00
9:55 AM,41.5,28.2,59,30.13,10.0,West,10.4,-,N/A,,Overcast,280,2012-10-26 13:55:00
10:15 AM,41.9,27.7,57,30.14,10.0,West,9.2,-,N/A,,Overcast,270,2012-10-26 14:15:00
10:34 AM,41.7,28.2,59,30.15,10.0,West,5.8,16.1,N/A,,Overcast,270,2012-10-26 14:34:00
10:55 AM,42.1,27.5,56,30.16,10.0,West,9.2,16.1,N/A,,Overcast,280,2012-10-26 14:55:00
11:15 AM,42.8,27.9,56,30.17,10.0,West,12.7,25.3,N/A,,Overcast,270,2012-10-26 15:15:00
11:34 AM,43.7,28.0,54,30.17,10.0,West,12.7,17.3,N/A,,Overcast,270,2012-10-26 15:34:00
11:55 AM,43.3,28.2,55,30.18,10.0,West,8.1,17.3,N/A,,Overcast,260,2012-10-26 15:55:00
12:15 PM,45.0,28.8,53,30.18,10.0,West,11.5,20.7,N/A,,Mostly Cloudy,270,2012-10-26 16:15:00
12:34 PM,45.1,29.5,54,30.19,10.0,West,9.2,17.3,N/A,,Overcast,270,2012-10-26 16:34:00
12:55 PM,43.5,27.5,53,30.19,10.0,West,11.5,20.7,N/A,,Mostly Cloudy,260,2012-10-26 16:55:00
1:15 PM,45.7,29.7,54,30.20,10.0,WSW,12.7,18.4,N/A,,Mostly Cloudy,250,2012-10-26 17:15:00
1:34 PM,45.0,29.5,55,30.19,10.0,West,13.8,20.7,N/A,,Mostly Cloudy,270,2012-10-26 17:34:00
1:55 PM,43.3,27.9,54,30.19,10.0,West,9.2,19.6,N/A,,Scattered Clouds,260,2012-10-26 17:55:00
2:15 PM,46.0,30.2,54,30.19,10.0,West,12.7,17.3,N/A,,Scattered Clouds,260,2012-10-26 18:15:00
2:34 PM,45.9,30.2,54,30.19,10.0,West,12.7,18.4,N/A,,Mostly Cloudy,270,2012-10-26 18:34:00
2:55 PM,43.9,29.3,57,30.19,10.0,West,11.5,20.7,N/A,,Mostly Cloudy,270,2012-10-26 18:55:00
3:15 PM,45.3,31.6,59,30.19,10.0,West,11.5,18.4,N/A,,Mostly Cloudy,260,2012-10-26 19:15:00
3:34 PM,43.5,29.8,59,30.19,10.0,West,9.2,18.4,N/A,,Mostly Cloudy,270,2012-10-26 19:34:00
3:55 PM,43.2,29.8,59,30.20,10.0,WSW,9.2,16.1,N/A,,Mostly Cloudy,250,2012-10-26 19:55:00
4:15 PM,43.3,29.3,58,30.20,10.0,West,6.9,-,N/A,,Mostly Cloudy,270,2012-10-26 20:15:00
4:34 PM,43.0,29.5,59,30.21,10.0,West,11.5,16.1,N/A,,Mostly Cloudy,270,2012-10-26 20:34:00
4:55 PM,43.0,30.7,62,30.21,10.0,WSW,6.9,-,N/A,,Overcast,240,2012-10-26 20:55:00
5:15 PM,43.0,30.0,60,30.21,10.0,WSW,5.8,-,N/A,,Overcast,250,2012-10-26 21:15:00
5:34 PM,42.8,30.2,61,30.21,10.0,WSW,10.4,18.4,N/A,,Overcast,250,2012-10-26 21:34:00
5:55 PM,42.3,30.2,62,30.22,10.0,WSW,6.9,-,N/A,,Overcast,250,2012-10-26 21:55:00
6:15 PM,42.3,28.9,59,30.22,10.0,West,6.9,-,N/A,,Overcast,260,2012-10-26 22:15:00
6:34 PM,42.3,28.9,59,30.23,10.0,West,8.1,-,N/A,,Overcast,270,2012-10-26 22:34:00
6:55 PM,42.4,28.9,59,30.23,10.0,West,6.9,-,N/A,,Overcast,270,2012-10-26 22:55:00
7:15 PM,42.4,28.4,58,30.23,10.0,WSW,5.8,-,N/A,,Overcast,250,2012-10-26 23:15:00
7:34 PM,42.8,29.3,59,30.24,10.0,West,10.4,-,N/A,,Overcast,280,2012-10-26 23:34:00
8:15 PM,42.4,28.0,57,30.24,10.0,West,5.8,-,N/A,,Overcast,280,2012-10-27 00:15:00
8:35 PM,42.1,28.2,58,30.24,10.0,West,8.1,-,N/A,,Mostly Cloudy,280,2012-10-27 00:35:00
9:15 PM,42.3,28.0,57,30.24,10.0,WNW,5.8,-,N/A,,Overcast,300,2012-10-27 01:15:00
9:35 PM,42.1,28.4,58,30.24,10.0,NW,3.5,-,N/A,,Overcast,320,2012-10-27 01:35:00
9:55 PM,41.0,28.2,60,30.24,10.0,Calm,Calm,-,N/A,,Scattered Clouds,0,2012-10-27 01:55:00
10:14 PM,39.6,29.1,66,30.24,10.0,Calm,Calm,-,N/A,,Mostly Cloudy,0,2012-10-27 02:14:00
10:35 PM,39.6,29.3,67,30.23,10.0,North,4.6,-,N/A,,Overcast,350,2012-10-27 02:35:00
10:55 PM,39.6,28.9,66,30.23,10.0,Calm,Calm,-,N/A,,Mostly Cloudy,0,2012-10-27 02:55:00
11:14 PM,39.7,28.9,65,30.24,10.0,NW,3.5,-,N/A,,Overcast,320,2012-10-27 03:14:00
11:35 PM,41.5,28.8,60,30.24,10.0,North,3.5,-,N/A,,Overcast,360,2012-10-27 03:35:00
11:55 PM,41.0,29.1,63,30.25,10.0,Calm,Calm,-,N/A,,Overcast,0,2012-10-27 03:55:00